Time;durP1;ratioP1;P1;durP2;ratioP2;P2;SDS_P1;SDS_P2;PMS_P1;PMS_P2;Temp;Humidity;BMP_temperature;BMP_pressure;BME280_temperature;BME280_humidity;BME280_pressure;Samples;Min_cycle;Max_cycle;Signal;HPM_P1;HPM_P2
2023/01/22 00:01:30;;;;;;;38.88;12.95;;;-1.50;99.90;;;;;;5047580;28;20096;-64
2023/01/22 00:03:56;;;;;;;39.05;13.38;;;-1.60;99.90;;;;;;5046817;28;20026;-65
2023/01/22 00:06:22;;;;;;;38.17;13.73;;;-1.50;99.90;;;;;;5047531;28;20040;-65
2023/01/22 00:08:49;;;;;;;41.53;13.73;;;-1.50;99.90;;;;;;5044934;28;20029;-65
2023/01/22 00:11:15;;;;;;;38.70;13.68;;;-1.50;99.90;;;;;;5047883;28;20044;-65
2023/01/22 00:13:41;;;;;;;34.45;13.25;;;-1.50;99.90;;;;;;5045498;28;20374;-65
2023/01/22 00:16:07;;;;;;;34.88;12.48;;;-1.50;99.90;;;;;;5048639;28;20107;-64
2023/01/22 00:18:33;;;;;;;37.22;13.40;;;-1.50;99.90;;;;;;5045241;28;20060;-64
2023/01/22 00:20:59;;;;;;;35.97;14.05;;;-1.50;99.90;;;;;;5048213;28;20068;-65
2023/01/22 00:23:24;;;;;;;39.03;12.55;;;-1.40;99.90;;;;;;5049025;28;20110;-66
2023/01/22 00:26:03;;;;;;;38.00;13.63;;;-1.50;99.90;;;;;;5045593;28;20052;-64
2023/01/22 00:28:29;;;;;;;34.10;12.80;;;-1.50;99.90;;;;;;5045861;28;20029;-64
2023/01/22 00:30:59;;;;;;;36.38;12.77;;;-1.50;99.90;;;;;;5048006;28;20039;-65
2023/01/22 00:33:25;;;;;;;41.90;13.95;;;-1.50;99.90;;;;;;5044300;28;20373;-64
2023/01/22 00:35:51;;;;;;;37.25;13.98;;;-1.50;99.90;;;;;;5046899;28;20102;-65
2023/01/22 00:38:16;;;;;;;36.80;13.40;;;-1.50;99.90;;;;;;5045846;28;20393;-64
2023/01/22 00:40:42;;;;;;;42.78;14.75;;;-1.50;99.90;;;;;;5046844;28;20470;-64
2023/01/22 00:43:08;;;;;;;40.15;14.70;;;-1.50;99.90;;;;;;5046989;28;20110;-64
2023/01/22 00:45:33;;;;;;;40.90;14.73;;;-1.50;99.90;;;;;;5047115;28;20393;-64
2023/01/22 00:47:59;;;;;;;39.13;15.13;;;-1.50;99.90;;;;;;5045576;28;20036;-65
2023/01/22 00:50:25;;;;;;;40.72;14.70;;;-1.50;99.90;;;;;;5041021;28;20033;-64
2023/01/22 00:52:51;;;;;;;39.75;14.07;;;-1.50;99.90;;;;;;5044460;28;20635;-65
2023/01/22 00:55:17;;;;;;;41.92;14.75;;;-1.50;99.90;;;;;;5047201;28;20556;-65
2023/01/22 00:57:42;;;;;;;38.25;14.27;;;-1.50;99.90;;;;;;5040818;28;20029;-65
2023/01/22 01:00:08;;;;;;;45.00;14.63;;;-1.50;99.90;;;;;;5046669;28;20492;-64
2023/01/22 01:03:25;;;;;;;40.78;14.13;;;-1.50;99.90;;;;;;5046500;28;20028;-66
2023/01/22 01:05:20;;;;;;;42.30;13.88;;;-1.50;99.90;;;;;;5044832;28;20398;-65
2023/01/22 01:07:45;;;;;;;40.42;14.40;;;-1.50;99.90;;;;;;5046052;28;20071;-65
2023/01/22 01:10:11;;;;;;;41.15;14.70;;;-1.40;99.90;;;;;;5047009;28;20041;-65
2023/01/22 01:12:36;;;;;;;41.53;14.18;;;-1.40;99.90;;;;;;5044638;28;20041;-65
2023/01/22 01:15:02;;;;;;;41.47;14.27;;;-1.50;99.90;;;;;;5042927;28;20041;-65
2023/01/22 01:17:28;;;;;;;40.10;14.98;;;-1.50;99.90;;;;;;5043013;28;20079;-64
2023/01/22 01:19:53;;;;;;;40.08;14.65;;;-1.50;99.90;;;;;;5046210;28;20034;-65
2023/01/22 01:22:19;;;;;;;36.50;14.55;;;-1.40;99.90;;;;;;5046331;28;20021;-64
2023/01/22 01:24:44;;;;;;;41.38;15.05;;;-1.40;99.90;;;;;;5045511;28;20099;-65
2023/01/22 01:27:10;;;;;;;39.00;14.57;;;-1.50;99.90;;;;;;5046338;28;20035;-64
2023/01/22 01:29:36;;;;;;;42.53;15.70;;;-1.50;99.90;;;;;;5040276;28;20037;-64
2023/01/22 01:32:01;;;;;;;36.90;13.27;;;-1.40;99.90;;;;;;5036049;28;20045;-64
2023/01/22 01:34:27;;;;;;;42.03;14.93;;;-1.40;99.90;;;;;;5046846;28;20087;-65
2023/01/22 01:36:53;;;;;;;40.28;14.80;;;-1.40;99.90;;;;;;5045185;28;20532;-64
2023/01/22 01:39:19;;;;;;;42.80;15.00;;;-1.40;99.90;;;;;;5045215;28;20162;-64
2023/01/22 01:41:44;;;;;;;38.72;14.77;;;-1.40;99.90;;;;;;5036106;28;20461;-65
2023/01/22 01:44:22;;;;;;;41.42;15.25;;;-1.40;99.90;;;;;;5046639;28;20033;-65
2023/01/22 01:46:54;;;;;;;40.22;15.18;;;-1.40;99.90;;;;;;5043863;28;20041;-65
2023/01/22 01:49:27;;;;;;;43.22;16.38;;;-1.40;99.90;;;;;;5044767;28;20033;-65
2023/01/22 01:51:58;;;;;;;43.25;15.55;;;-1.40;99.90;;;;;;5043630;28;20405;-65
2023/01/22 01:54:25;;;;;;;40.45;14.88;;;-1.40;99.90;;;;;;5056339;28;20033;-65
2023/01/22 01:56:56;;;;;;;42.67;14.85;;;-1.40;99.90;;;;;;5045119;28;20136;-64
2023/01/22 01:59:22;;;;;;;49.58;15.77;;;-1.40;99.90;;;;;;5045159;28;20041;-65
2023/01/22 02:01:52;;;;;;;39.80;15.10;;;-1.40;99.90;;;;;;5033924;28;20385;-64
2023/01/22 02:04:18;;;;;;;36.97;14.15;;;-1.40;99.90;;;;;;5045934;28;20028;-65
2023/01/22 02:06:44;;;;;;;44.63;15.90;;;-1.40;99.90;;;;;;5045682;28;20044;-65
2023/01/22 02:09:10;;;;;;;45.33;16.00;;;-1.40;99.90;;;;;;5045257;28;20029;-65
2023/01/22 02:11:38;;;;;;;42.72;14.50;;;-1.40;99.90;;;;;;5045634;28;20043;-65
2023/01/22 02:14:20;;;;;;;43.35;16.83;;;-1.40;99.90;;;;;;5044437;28;20040;-65
2023/01/22 02:16:46;;;;;;;44.13;15.40;;;-1.40;99.90;;;;;;5046843;28;20124;-65
2023/01/22 02:19:11;;;;;;;50.03;16.20;;;-1.40;99.90;;;;;;5037681;28;20178;-65
2023/01/22 02:21:42;;;;;;;45.00;16.55;;;-1.40;99.90;;;;;;5045438;28;20133;-65
2023/01/22 02:24:15;;;;;;;45.38;15.85;;;-1.40;99.90;;;;;;5046871;28;20033;-65
2023/01/22 02:26:44;;;;;;;43.90;16.58;;;-1.40;99.90;;;;;;5044349;28;20086;-65
2023/01/22 02:29:11;;;;;;;45.38;16.88;;;-1.40;99.90;;;;;;5046212;28;20043;-65
2023/01/22 02:31:39;;;;;;;48.38;17.20;;;-1.40;99.90;;;;;;5046306;28;20036;-65
2023/01/22 02:34:06;;;;;;;45.97;16.90;;;-1.40;99.90;;;;;;5050447;28;20104;-65
2023/01/22 02:36:34;;;;;;;43.22;15.73;;;-1.40;99.90;;;;;;5047234;28;20073;-65
2023/01/22 02:39:00;;;;;;;45.70;17.05;;;-1.40;99.90;;;;;;5048721;28;20103;-65
2023/01/22 02:41:26;;;;;;;46.65;16.27;;;-1.40;99.90;;;;;;5047504;28;20120;-65
2023/01/22 02:43:52;;;;;;;47.03;16.90;;;-1.40;99.90;;;;;;5046710;28;20041;-65
2023/01/22 02:46:18;;;;;;;42.15;16.38;;;-1.30;99.90;;;;;;5048739;28;20033;-65
2023/01/22 02:48:44;;;;;;;45.17;16.45;;;-1.30;99.90;;;;;;5047231;28;20017;-65
2023/01/22 02:51:10;;;;;;;48.55;17.58;;;-1.30;99.90;;;;;;5047245;28;20033;-64
2023/01/22 02:53:35;;;;;;;44.75;17.13;;;-1.30;99.90;;;;;;5045123;28;20399;-64
2023/01/22 02:56:06;;;;;;;43.35;16.25;;;-1.40;99.90;;;;;;5048459;28;20667;-65
2023/01/22 02:58:32;;;;;;;46.72;17.10;;;-1.40;99.90;;;;;;5048422;28;20036;-65
2023/01/22 03:01:26;;;;;;;46.38;17.08;;;-1.40;99.90;;;;;;5047907;28;20032;-65
2023/01/22 03:03:57;;;;;;;49.33;17.25;;;-1.30;99.90;;;;;;5047844;28;20043;-64
2023/01/22 03:06:25;;;;;;;47.35;16.73;;;-1.30;99.90;;;;;;5048843;28;20029;-65
2023/01/22 03:08:56;;;;;;;55.40;19.20;;;-1.30;99.90;;;;;;5047480;28;20465;-65
2023/01/22 03:11:23;;;;;;;47.67;17.90;;;-1.40;99.90;;;;;;5047973;28;20048;-65
2023/01/22 03:22:03;;;;;;;48.28;17.85;;;-1.40;99.90;;;;;;5048619;28;20032;-64
2023/01/22 03:24:28;;;;;;;49.90;17.92;;;-1.30;99.90;;;;;;5048443;28;20410;-65
2023/01/22 03:26:54;;;;;;;51.33;18.42;;;-1.30;99.90;;;;;;5045834;28;20049;-63
2023/01/22 03:29:20;;;;;;;51.17;17.60;;;-1.20;99.90;;;;;;5049184;28;20029;-65
2023/01/22 03:31:47;;;;;;;47.65;17.73;;;-1.20;99.90;;;;;;5047373;28;20033;-65
2023/01/22 03:34:17;;;;;;;48.60;17.77;;;-1.20;99.90;;;;;;5047508;28;20043;-65
2023/01/22 03:36:43;;;;;;;48.35;18.00;;;-1.20;99.90;;;;;;5047712;28;20052;-64
2023/01/22 03:39:09;;;;;;;48.75;16.52;;;-1.20;99.90;;;;;;5048895;28;20482;-64
2023/01/22 03:41:35;;;;;;;45.67;17.45;;;-1.20;99.90;;;;;;5042662;28;20394;-64
2023/01/22 03:44:02;;;;;;;47.72;17.92;;;-1.20;99.90;;;;;;5044656;28;20029;-64
2023/01/22 03:46:28;;;;;;;53.92;18.67;;;-1.20;99.90;;;;;;5048265;28;20088;-65
2023/01/22 03:48:53;;;;;;;50.03;18.10;;;-1.30;99.90;;;;;;5046926;28;20045;-63
2023/01/22 03:51:20;;;;;;;49.15;17.02;;;-1.30;99.90;;;;;;5048707;28;20028;-64
2023/01/22 03:53:46;;;;;;;49.58;17.75;;;-1.30;99.90;;;;;;5048193;28;20031;-64
2023/01/22 03:56:22;;;;;;;52.90;18.42;;;-1.30;99.90;;;;;;5047622;28;20049;-65
2023/01/22 03:58:49;;;;;;;54.72;17.90;;;-1.30;99.90;;;;;;5048627;28;20033;-64
2023/01/22 04:01:17;;;;;;;48.58;18.02;;;-1.30;99.90;;;;;;5039716;28;20045;-64
2023/01/22 04:03:43;;;;;;;47.78;17.80;;;-1.30;99.90;;;;;;5046934;28;20025;-65
2023/01/22 04:06:11;;;;;;;56.60;18.25;;;-1.30;99.90;;;;;;5047041;28;20503;-65
2023/01/22 04:08:38;;;;;;;50.03;18.17;;;-1.30;99.90;;;;;;5049298;28;20067;-64
2023/01/22 04:11:04;;;;;;;53.65;18.17;;;-1.20;99.90;;;;;;5046832;28;20041;-65
2023/01/22 04:13:32;;;;;;;50.08;18.13;;;-1.20;99.90;;;;;;5048724;28;20039;-65
2023/01/22 04:15:58;;;;;;;46.15;17.65;;;-1.10;99.90;;;;;;5044774;28;20407;-65
2023/01/22 04:18:24;;;;;;;49.50;18.05;;;-1.10;99.90;;;;;;5040452;28;20033;-65
2023/01/22 04:20:50;;;;;;;51.60;17.23;;;-1.00;99.90;;;;;;5047451;28;20037;-64
2023/01/22 04:23:17;;;;;;;49.20;18.00;;;-1.00;99.90;;;;;;5049351;28;20040;-64
2023/01/22 04:25:43;;;;;;;49.33;16.95;;;-1.10;99.90;;;;;;5043551;28;20133;-64
2023/01/22 04:28:10;;;;;;;50.17;18.55;;;-1.10;99.90;;;;;;5049076;28;20033;-64
2023/01/22 04:30:36;;;;;;;44.88;17.35;;;-1.10;99.90;;;;;;5047366;28;20025;-65
2023/01/22 04:33:02;;;;;;;47.30;17.60;;;-1.10;99.90;;;;;;5046329;28;20045;-64
2023/01/22 04:35:28;;;;;;;43.90;16.77;;;-1.10;99.90;;;;;;5048508;28;20045;-64
2023/01/22 04:37:54;;;;;;;50.20;17.27;;;-1.10;99.90;;;;;;5046826;28;20064;-65
2023/01/22 04:40:20;;;;;;;55.95;18.45;;;-1.20;99.90;;;;;;5047726;28;20405;-65
2023/01/22 04:42:46;;;;;;;45.10;16.30;;;-1.20;99.90;;;;;;5047674;28;20049;-65
2023/01/22 04:45:11;;;;;;;55.85;20.10;;;-1.20;99.90;;;;;;5046981;28;20037;-65
2023/01/22 04:47:41;;;;;;;49.83;17.52;;;-1.20;99.90;;;;;;5047515;28;20090;-66
2023/01/22 04:50:11;;;;;;;55.47;18.80;;;-1.20;99.90;;;;;;5045871;28;20485;-65
2023/01/22 04:52:37;;;;;;;53.75;18.05;;;-1.20;99.90;;;;;;5043964;28;20043;-65
2023/01/22 04:55:03;;;;;;;52.58;18.98;;;-1.30;99.90;;;;;;5045974;28;20470;-64
2023/01/22 04:57:29;;;;;;;53.60;18.77;;;-1.30;99.90;;;;;;5047100;28;20402;-63
2023/01/22 04:59:54;;;;;;;50.15;18.27;;;-1.30;99.90;;;;;;5044997;28;20040;-64
2023/01/22 05:02:20;;;;;;;49.78;17.83;;;-1.30;99.90;;;;;;5047288;28;20028;-64
2023/01/22 05:04:46;;;;;;;53.05;18.38;;;-1.40;99.90;;;;;;5046243;28;20063;-65
2023/01/22 05:07:11;;;;;;;53.67;18.77;;;-1.40;99.90;;;;;;5046837;28;20036;-64
2023/01/22 05:09:37;;;;;;;53.78;18.63;;;-1.40;99.90;;;;;;5057964;28;20044;-64
2023/01/22 05:12:03;;;;;;;55.58;19.17;;;-1.40;99.90;;;;;;5046473;28;20045;-65
2023/01/22 05:14:28;;;;;;;52.60;18.55;;;-1.40;99.90;;;;;;5046918;28;20079;-65
2023/01/22 05:16:54;;;;;;;58.88;19.33;;;-1.40;99.90;;;;;;5046870;28;20328;-65
2023/01/22 05:19:19;;;;;;;61.88;20.05;;;-1.40;99.90;;;;;;5046830;28;20100;-64
2023/01/22 05:21:45;;;;;;;57.95;19.50;;;-1.40;99.90;;;;;;5045286;28;20029;-64
2023/01/22 05:24:11;;;;;;;56.03;19.55;;;-1.40;99.90;;;;;;5044639;28;20164;-64
2023/01/22 05:26:36;;;;;;;59.20;20.63;;;-1.40;99.90;;;;;;5047410;28;20468;-65
2023/01/22 05:29:02;;;;;;;57.35;19.65;;;-1.40;99.90;;;;;;5043907;28;20505;-65
2023/01/22 05:31:28;;;;;;;63.33;20.35;;;-1.40;99.90;;;;;;5046489;28;20036;-65
2023/01/22 05:33:53;;;;;;;59.22;19.70;;;-1.40;99.90;;;;;;5045146;28;20033;-65
2023/01/22 05:36:19;;;;;;;63.13;19.33;;;-1.40;99.90;;;;;;5046156;28;20513;-65
2023/01/22 05:38:45;;;;;;;59.45;19.80;;;-1.40;99.90;;;;;;5043598;28;20036;-64
2023/01/22 05:41:11;;;;;;;59.63;19.75;;;-1.40;99.90;;;;;;5046042;28;20025;-63
2023/01/22 05:43:37;;;;;;;55.35;19.30;;;-1.40;99.90;;;;;;5045389;28;20065;-65
2023/01/22 05:46:04;;;;;;;59.67;20.27;;;-1.40;99.90;;;;;;5045892;28;20355;-65
2023/01/22 05:48:31;;;;;;;63.13;19.58;;;-1.30;99.90;;;;;;5045136;28;20418;-64
2023/01/22 05:51:08;;;;;;;58.38;19.30;;;-1.30;99.90;;;;;;5042140;28;20668;-65
2023/01/22 05:53:34;;;;;;;58.13;19.17;;;-1.30;99.90;;;;;;5045529;28;20467;-65
2023/01/22 05:56:04;;;;;;;63.13;20.63;;;-1.30;99.90;;;;;;5043264;28;20150;-65
2023/01/22 05:58:31;;;;;;;66.25;20.42;;;-1.30;99.90;;;;;;5040989;28;20469;-65
2023/01/22 06:00:57;;;;;;;66.43;20.58;;;-1.30;99.90;;;;;;5044646;28;20045;-65
2023/01/22 06:03:23;;;;;;;66.53;22.52;;;-1.30;99.90;;;;;;5044411;28;20099;-64
2023/01/22 06:06:03;;;;;;;66.57;21.48;;;-1.30;99.90;;;;;;5046141;28;20029;-65
2023/01/22 06:08:30;;;;;;;65.18;21.85;;;-1.30;99.90;;;;;;5047624;28;20032;-64
2023/01/22 06:11:03;;;;;;;67.88;20.88;;;-1.20;99.90;;;;;;5046685;28;20052;-64
2023/01/22 06:13:30;;;;;;;65.28;20.85;;;-1.20;99.90;;;;;;5041964;28;20048;-65
2023/01/22 06:15:55;;;;;;;65.75;20.48;;;-1.30;99.90;;;;;;5049416;28;20024;-65
2023/01/22 06:18:22;;;;;;;71.00;22.17;;;-1.30;99.90;;;;;;5049648;28;20031;-65
2023/01/22 06:20:48;;;;;;;66.38;21.70;;;-1.30;99.90;;;;;;5051748;28;20456;-64
2023/01/22 06:23:14;;;;;;;73.75;21.95;;;-1.20;99.90;;;;;;5064593;28;20024;-65
2023/01/22 06:25:40;;;;;;;69.13;22.70;;;-1.30;99.90;;;;;;5060397;28;20029;-65
2023/01/22 06:28:05;;;;;;;70.93;22.33;;;-1.20;99.90;;;;;;5051118;28;20094;-65
2023/01/22 06:30:31;;;;;;;72.82;22.63;;;-1.20;99.90;;;;;;5047976;28;20091;-64
2023/01/22 06:32:57;;;;;;;76.65;23.75;;;-1.20;99.90;;;;;;5056532;28;20048;-65
2023/01/22 06:35:22;;;;;;;72.30;22.63;;;-1.20;99.90;;;;;;5051997;28;20040;-65
2023/01/22 06:37:48;;;;;;;71.80;23.30;;;-1.20;99.90;;;;;;5048274;28;20021;-65
2023/01/22 06:40:14;;;;;;;68.40;22.83;;;-1.20;99.90;;;;;;5064450;28;20099;-65
2023/01/22 06:42:40;;;;;;;76.60;22.83;;;-1.20;99.90;;;;;;5065284;28;20063;-65
2023/01/22 06:45:06;;;;;;;76.55;23.00;;;-1.20;99.90;;;;;;5049196;28;20037;-64
2023/01/22 06:47:32;;;;;;;71.45;22.77;;;-1.20;99.90;;;;;;5051151;28;20045;-65
2023/01/22 06:49:57;;;;;;;74.35;23.33;;;-1.10;99.90;;;;;;5049660;28;20045;-66
2023/01/22 06:52:23;;;;;;;76.03;22.27;;;-1.20;99.90;;;;;;5046635;28;20425;-65
2023/01/22 06:54:49;;;;;;;77.47;23.05;;;-1.20;99.90;;;;;;5049072;28;20041;-65
2023/01/22 06:57:15;;;;;;;78.68;23.35;;;-1.20;99.90;;;;;;5052611;28;20597;-65
2023/01/22 06:59:40;;;;;;;64.00;21.20;;;-1.20;99.90;;;;;;5049842;28;20103;-64
2023/01/22 07:02:06;;;;;;;68.07;20.83;;;-1.20;99.90;;;;;;5042096;28;20033;-65
2023/01/22 07:04:32;;;;;;;70.75;22.63;;;-1.20;99.90;;;;;;5044932;28;20480;-64
2023/01/22 07:06:57;;;;;;;65.45;20.70;;;-1.10;99.90;;;;;;5043200;28;20039;-65
2023/01/22 07:09:23;;;;;;;68.78;22.17;;;-1.10;99.90;;;;;;5054770;28;20037;-64
2023/01/22 07:11:49;;;;;;;66.90;22.10;;;-1.20;99.90;;;;;;5047612;28;20037;-64
2023/01/22 07:14:15;;;;;;;60.60;20.55;;;-1.20;99.90;;;;;;5057856;28;20041;-65
2023/01/22 07:16:40;;;;;;;73.85;21.60;;;-1.20;99.90;;;;;;5046981;28;20108;-65
2023/01/22 07:19:06;;;;;;;66.85;21.77;;;-1.10;99.90;;;;;;5045115;28;20035;-65
2023/01/22 07:21:31;;;;;;;66.30;21.25;;;-1.10;99.90;;;;;;5047409;28;20074;-65
2023/01/22 07:23:57;;;;;;;72.15;22.02;;;-1.20;99.90;;;;;;5045781;28;20051;-63
2023/01/22 07:26:23;;;;;;;66.90;21.63;;;-1.20;99.90;;;;;;5045881;28;20025;-64
2023/01/22 07:28:48;;;;;;;68.28;22.33;;;-1.20;99.90;;;;;;5048707;28;20029;-64
2023/01/22 07:31:14;;;;;;;67.60;20.67;;;-1.10;99.90;;;;;;5042159;28;20623;-65
2023/01/22 07:33:40;;;;;;;65.95;20.45;;;-1.10;99.90;;;;;;5047601;28;20094;-64
2023/01/22 07:36:06;;;;;;;70.20;20.92;;;-1.20;99.90;;;;;;5047815;28;20051;-65
2023/01/22 07:38:32;;;;;;;69.30;20.27;;;-1.10;99.90;;;;;;5049563;28;20032;-64
2023/01/22 07:41:05;;;;;;;62.47;19.30;;;-1.20;99.90;;;;;;5048013;28;20084;-65
2023/01/22 07:43:31;;;;;;;60.30;18.77;;;-1.20;99.90;;;;;;5047139;28;20171;-64
2023/01/22 07:46:00;;;;;;;70.43;20.25;;;-1.20;99.90;;;;;;5047906;28;20033;-65
2023/01/22 07:48:26;;;;;;;61.33;19.30;;;-1.20;99.90;;;;;;5047543;28;20067;-65
2023/01/22 07:50:51;;;;;;;61.50;18.98;;;-1.10;99.90;;;;;;5044714;28;20494;-65
2023/01/22 07:53:17;;;;;;;72.28;20.52;;;-1.10;99.90;;;;;;5046049;28;20036;-65
2023/01/22 07:55:43;;;;;;;67.18;19.85;;;-1.10;99.90;;;;;;5048233;28;20048;-64
2023/01/22 07:58:10;;;;;;;61.50;20.30;;;-1.10;99.90;;;;;;5039146;28;20033;-65
2023/01/22 08:00:35;;;;;;;71.00;20.38;;;-1.10;99.90;;;;;;5048858;28;20086;-65
2023/01/22 08:03:04;;;;;;;65.28;21.13;;;-1.10;99.90;;;;;;5046025;28;20029;-65
2023/01/22 08:05:30;;;;;;;69.38;20.80;;;-1.10;99.90;;;;;;5047386;28;20056;-64
2023/01/22 08:07:57;;;;;;;65.93;20.70;;;-1.10;99.90;;;;;;5047668;28;20539;-64
2023/01/22 08:10:23;;;;;;;71.20;21.20;;;-1.10;99.90;;;;;;5042904;28;20032;-65
2023/01/22 08:12:48;;;;;;;71.15;22.17;;;-1.00;99.90;;;;;;5047497;28;20120;-65
2023/01/22 08:15:14;;;;;;;69.25;22.17;;;-1.00;99.90;;;;;;5043372;28;20069;-65
2023/01/22 08:17:40;;;;;;;65.13;21.27;;;-1.00;99.90;;;;;;5042937;28;20039;-64
2023/01/22 08:20:06;;;;;;;67.25;22.27;;;-1.00;99.90;;;;;;5048255;28;20033;-64
2023/01/22 08:22:32;;;;;;;74.85;21.73;;;-1.00;99.90;;;;;;5049681;28;20051;-64
2023/01/22 08:24:57;;;;;;;63.05;20.55;;;-0.90;99.90;;;;;;5047924;28;20626;-64
2023/01/22 08:27:23;;;;;;;75.82;22.08;;;-0.90;99.90;;;;;;5047376;28;20074;-64
2023/01/22 08:29:49;;;;;;;60.72;20.60;;;-0.90;99.90;;;;;;5047478;28;20037;-64
2023/01/22 08:32:15;;;;;;;64.88;20.08;;;-1.00;99.90;;;;;;5048611;28;20032;-65
2023/01/22 08:34:41;;;;;;;71.60;20.88;;;-0.90;99.90;;;;;;5040518;28;20030;-65
2023/01/22 08:37:07;;;;;;;62.88;20.15;;;-0.90;99.90;;;;;;5044052;28;20043;-65
2023/01/22 08:39:32;;;;;;;63.25;19.38;;;-0.90;99.90;;;;;;5048158;28;20028;-64
2023/01/22 08:41:58;;;;;;;67.18;21.33;;;-0.90;99.90;;;;;;5046490;28;20502;-64
2023/01/22 08:44:24;;;;;;;72.90;20.85;;;-0.90;99.90;;;;;;5047422;28;20041;-65
2023/01/22 08:46:50;;;;;;;68.90;20.48;;;-0.80;99.90;;;;;;5050046;28;20024;-65
2023/01/22 08:49:17;;;;;;;68.85;21.13;;;-0.80;99.90;;;;;;5049199;28;20039;-65
2023/01/22 08:51:43;;;;;;;65.32;21.40;;;-0.80;99.90;;;;;;5046166;28;20460;-64
2023/01/22 08:54:09;;;;;;;68.82;20.33;;;-0.80;99.90;;;;;;5045685;28;20087;-64
2023/01/22 08:56:34;;;;;;;74.95;21.67;;;-0.70;99.90;;;;;;5040013;28;20536;-64
2023/01/22 08:59:05;;;;;;;66.70;20.88;;;-0.70;99.90;;;;;;5045345;28;20118;-64
2023/01/22 09:01:31;;;;;;;62.72;20.95;;;-0.70;99.90;;;;;;5045847;28;20037;-65
2023/01/22 09:03:57;;;;;;;65.10;19.83;;;-0.60;99.90;;;;;;5044981;28;20051;-64
2023/01/22 09:06:23;;;;;;;66.47;20.95;;;-0.60;99.90;;;;;;5047157;28;20033;-65
2023/01/22 09:08:49;;;;;;;64.10;19.42;;;-0.60;99.90;;;;;;5046017;28;20032;-64
2023/01/22 09:11:15;;;;;;;62.22;18.65;;;-0.50;99.90;;;;;;5044580;28;20462;-64
2023/01/22 09:13:41;;;;;;;65.32;20.58;;;-0.50;99.90;;;;;;5045401;28;20041;-64
2023/01/22 09:16:09;;;;;;;60.42;19.70;;;-0.50;99.90;;;;;;5047797;28;20029;-65
2023/01/22 09:18:36;;;;;;;62.60;20.33;;;-0.50;99.90;;;;;;5047061;28;20029;-64
2023/01/22 09:21:03;;;;;;;58.70;18.98;;;-0.40;99.90;;;;;;5044115;28;20041;-65
2023/01/22 09:23:29;;;;;;;62.13;20.20;;;-0.40;99.90;;;;;;5037013;28;20470;-64
2023/01/22 09:25:54;;;;;;;63.80;19.67;;;-0.40;99.90;;;;;;5044127;28;20028;-64
2023/01/22 09:28:20;;;;;;;58.58;19.40;;;-0.40;99.90;;;;;;5044137;28;20118;-63
2023/01/22 09:30:46;;;;;;;58.25;19.20;;;-0.30;99.90;;;;;;5047873;28;20028;-65
2023/01/22 09:33:11;;;;;;;60.17;19.38;;;-0.20;99.90;;;;;;5046079;28;20401;-64
2023/01/22 09:35:37;;;;;;;59.47;19.08;;;-0.20;99.90;;;;;;5047565;28;20039;-64
2023/01/22 09:38:04;;;;;;;63.60;19.48;;;-0.10;99.90;;;;;;5049532;28;20036;-64
2023/01/22 09:40:31;;;;;;;60.67;19.08;;;-0.10;99.90;;;;;;5049167;28;20470;-65
2023/01/22 09:43:24;;;;;;;66.85;19.90;;;-0.10;99.90;;;;;;5046882;28;20059;-64
2023/01/22 09:45:55;;;;;;;61.88;19.23;;;-0.10;99.90;;;;;;5035438;28;20025;-64
2023/01/22 09:48:24;;;;;;;62.65;19.95;;;-0.10;99.90;;;;;;5046097;28;20168;-64
2023/01/22 09:50:50;;;;;;;63.45;19.98;;;-0.10;99.90;;;;;;5040823;28;20056;-65
2023/01/22 09:53:19;;;;;;;62.72;19.10;;;-0.10;99.90;;;;;;5044223;28;20107;-65
2023/01/22 09:55:51;;;;;;;59.33;19.85;;;0.00;99.90;;;;;;5045259;28;20025;-64
2023/01/22 09:58:21;;;;;;;61.97;19.70;;;0.00;99.90;;;;;;5044158;28;20518;-64
2023/01/22 10:00:54;;;;;;;56.15;18.40;;;0.00;99.90;;;;;;5040600;28;20249;-65
2023/01/22 10:03:46;;;;;;;57.92;19.35;;;0.10;99.90;;;;;;5044057;28;20040;-65
2023/01/22 10:06:17;;;;;;;59.17;19.92;;;0.20;99.90;;;;;;5042302;28;20036;-66
2023/01/22 10:09:27;;;;;;;57.78;19.67;;;0.20;99.90;;;;;;5043120;28;20037;-65
2023/01/22 10:11:54;;;;;;;58.27;18.87;;;0.30;99.90;;;;;;4965984;28;20074;-65
2023/01/22 10:14:24;;;;;;;77.75;24.17;;;0.40;99.90;;;;;;5026204;28;20497;-65
2023/01/22 10:16:50;;;;;;;65.40;21.70;;;0.50;99.90;;;;;;5044627;28;20025;-65
2023/01/22 10:19:32;;;;;;;73.55;25.73;;;0.50;99.90;;;;;;5046884;28;20044;-65
2023/01/22 10:22:10;;;;;;;72.03;26.15;;;0.50;99.90;;;;;;5045334;28;20029;-65
2023/01/22 10:24:36;;;;;;;72.95;28.00;;;0.50;99.90;;;;;;5044783;28;20116;-64
2023/01/22 10:27:20;;;;;;;81.40;27.40;;;0.50;99.90;;;;;;5046241;28;20116;-64
2023/01/22 10:30:27;;;;;;;75.38;25.70;;;0.60;99.90;;;;;;5048150;28;20032;-64
2023/01/22 10:33:05;;;;;;;69.47;26.52;;;0.70;99.90;;;;;;5047956;28;20040;-64
2023/01/22 10:35:41;;;;;;;70.03;25.33;;;0.60;99.90;;;;;;5047386;28;20067;-65
2023/01/22 10:38:24;;;;;;;62.00;21.95;;;0.70;99.90;;;;;;5039341;28;20263;-65
2023/01/22 10:41:01;;;;;;;59.03;20.55;;;0.70;99.90;;;;;;5045451;28;20493;-65
2023/01/22 10:43:35;;;;;;;61.10;20.27;;;0.70;99.90;;;;;;5047231;28;20648;-65
2023/01/22 10:46:16;;;;;;;60.03;21.42;;;0.70;99.90;;;;;;5028064;28;20029;-65
2023/01/22 10:48:41;;;;;;;44.00;16.70;;;0.70;99.90;;;;;;5033419;28;20036;-65
2023/01/22 10:51:18;;;;;;;52.47;18.88;;;0.70;99.90;;;;;;5046870;28;20398;-64
2023/01/22 10:53:51;;;;;;;43.88;15.65;;;0.70;99.90;;;;;;5049676;28;20065;-65
2023/01/22 10:56:29;;;;;;;64.35;21.77;;;0.70;99.90;;;;;;5043408;28;20025;-65
2023/01/22 10:58:56;;;;;;;58.35;21.80;;;0.70;99.90;;;;;;5041200;28;20493;-65
2023/01/22 11:01:40;;;;;;;54.88;19.67;;;0.70;99.90;;;;;;5049795;28;20493;-65
2023/01/22 11:04:13;;;;;;;46.00;17.73;;;0.70;99.90;;;;;;5050916;28;20029;-65
2023/01/22 11:06:44;;;;;;;47.50;17.92;;;0.80;99.90;;;;;;5051046;28;20083;-66
2023/01/22 11:09:21;;;;;;;56.40;21.15;;;0.80;99.90;;;;;;5050609;28;20481;-66
2023/01/22 11:12:06;;;;;;;49.00;17.75;;;0.90;99.90;;;;;;5046194;28;20063;-65
2023/01/22 11:14:35;;;;;;;60.05;20.33;;;0.90;99.90;;;;;;5050511;28;20476;-66
2023/01/22 11:17:20;;;;;;;55.80;19.55;;;0.90;99.90;;;;;;5042586;28;20695;-65
2023/01/22 11:20:03;;;;;;;59.30;21.10;;;0.90;99.90;;;;;;5050854;28;20029;-65
2023/01/22 11:22:33;;;;;;;75.85;23.85;;;0.90;99.90;;;;;;5044306;28;20035;-66
2023/01/22 11:24:59;;;;;;;44.85;16.00;;;0.90;99.90;;;;;;5050654;28;20033;-65
2023/01/22 11:27:49;;;;;;;50.35;17.23;;;0.80;99.90;;;;;;5048124;28;20052;-65
2023/01/22 11:30:48;;;;;;;47.67;16.13;;;0.80;99.90;;;;;;5032529;28;20471;-65
2023/01/22 11:33:41;;;;;;;36.72;13.48;;;0.80;99.90;;;;;;5039792;28;20044;-65
2023/01/22 11:36:43;;;;;;;45.20;15.20;;;0.90;99.90;;;;;;5050685;28;20036;-65
2023/01/22 11:39:32;;;;;;;78.68;22.83;;;0.90;99.90;;;;;;5032588;28;20044;-65
2023/01/22 11:42:01;;;;;;;28.37;10.63;;;1.00;99.90;;;;;;5049462;28;20561;-65
2023/01/22 11:45:03;;;;;;;42.53;17.10;;;1.00;99.90;;;;;;5049513;28;20490;-65
2023/01/22 11:48:03;;;;;;;44.53;17.88;;;0.80;99.90;;;;;;5043273;28;20140;-65
2023/01/22 11:50:54;;;;;;;36.53;13.05;;;0.80;99.90;;;;;;5049584;28;20037;-64
2023/01/22 11:53:42;;;;;;;32.88;13.35;;;0.80;99.90;;;;;;5049288;28;20032;-64
2023/01/22 11:56:35;;;;;;;35.30;14.23;;;0.80;99.90;;;;;;5050404;28;20032;-65
2023/01/22 11:59:30;;;;;;;37.85;15.05;;;0.90;99.90;;;;;;5048874;28;20031;-65
2023/01/22 12:02:04;;;;;;;33.45;12.70;;;1.10;99.90;;;;;;5050042;28;20078;-66
2023/01/22 12:04:45;;;;;;;39.88;14.82;;;1.20;99.90;;;;;;5048642;28;20889;-65
2023/01/22 12:07:19;;;;;;;42.22;15.13;;;1.30;99.90;;;;;;5049910;28;20049;-66
2023/01/22 12:10:22;;;;;;;40.92;15.32;;;1.30;99.90;;;;;;5050033;28;20025;-65
2023/01/22 12:13:00;;;;;;;45.47;16.00;;;1.30;99.90;;;;;;5046351;28;20740;-65
2023/01/22 12:15:26;;;;;;;36.58;13.68;;;1.30;99.90;;;;;;5048980;28;20061;-66
2023/01/22 12:18:04;;;;;;;34.33;12.18;;;1.20;99.90;;;;;;5048447;28;20087;-64
2023/01/22 12:20:44;;;;;;;30.20;12.45;;;1.20;99.90;;;;;;5049125;28;20036;-66
2023/01/22 12:23:20;;;;;;;36.33;14.48;;;1.20;99.90;;;;;;5042799;28;20049;-64
2023/01/22 12:25:54;;;;;;;30.85;12.75;;;1.30;99.90;;;;;;5047262;28;20063;-66
2023/01/22 12:28:32;;;;;;;40.92;14.95;;;1.30;99.90;;;;;;5047086;28;20039;-65
2023/01/22 12:31:13;;;;;;;37.80;14.85;;;1.40;99.90;;;;;;5048091;28;20037;-65
2023/01/22 12:33:41;;;;;;;34.53;12.52;;;1.50;99.90;;;;;;5044122;28;20474;-65
2023/01/22 12:36:11;;;;;;;37.47;14.10;;;1.50;99.90;;;;;;5047781;28;20036;-65
2023/01/22 12:38:37;;;;;;;48.08;17.40;;;1.50;99.90;;;;;;5046820;28;20037;-65
2023/01/22 12:41:35;;;;;;;52.00;17.25;;;1.50;99.90;;;;;;5043827;28;20515;-65
2023/01/22 12:44:32;;;;;;;45.50;17.25;;;1.40;99.90;;;;;;5029431;28;20088;-66
2023/01/22 12:47:09;;;;;;;44.67;15.82;;;1.40;99.90;;;;;;5053912;28;20112;-66
2023/01/22 12:49:46;;;;;;;42.47;16.13;;;1.50;99.90;;;;;;5048694;28;20276;-66